createdAt,value
2018-12-16T16:10:42.132Z,0.20
2018-12-16T16:44:48.432Z,0.13
2018-12-16T16:57:14.256Z,-0.09
2018-12-16T16:59:43.805Z,-0.14
2018-12-16T17:05:17.924Z,-0.25
2018-12-16T17:07:53.328Z,-0.13
2018-12-16T17:10:22.847Z,-0.08
2018-12-16T17:12:52.340Z,0.03
2018-12-16T17:15:21.831Z,0.10
2018-12-16T17:17:51.381Z,0.03
2018-12-16T17:20:20.841Z,-0.06
2018-12-16T17:22:50.476Z,-0.07
2018-12-16T17:25:19.964Z,-0.10
2018-12-16T17:27:49.485Z,-0.15
2018-12-16T17:30:19.038Z,-0.13
2018-12-16T17:32:48.556Z,-0.17
2018-12-16T17:35:18.169Z,-0.14
2018-12-16T17:40:44.190Z,-0.22
2018-12-16T17:43:13.696Z,-0.19
2018-12-16T17:46:02.822Z,-0.13
2018-12-16T17:48:46.976Z,-0.13
2018-12-16T17:51:17.176Z,-0.06
2018-12-16T17:57:15.265Z,-0.03
2018-12-16T17:59:44.690Z,-0.09
2018-12-16T18:02:14.176Z,-0.13
2018-12-16T18:04:43.837Z,-0.04
2018-12-16T18:07:13.316Z,0.09
2018-12-16T18:09:42.963Z,-0.04
2018-12-16T18:12:12.445Z,-0.07
2018-12-16T18:14:42.052Z,0.09
2018-12-16T18:17:11.646Z,0.01
2018-12-16T18:19:41.153Z,0.14
2018-12-16T18:22:14.030Z,0.08
2018-12-16T18:24:42.336Z,-0.01
2018-12-16T18:27:12.126Z,0.01
2018-12-16T18:29:41.708Z,0.03
2018-12-16T18:32:11.306Z,0.06
2018-12-16T18:34:40.778Z,-0.08
2018-12-16T18:37:10.352Z,0.00
2018-12-16T18:39:40.002Z,0.04
2018-12-16T18:42:10.097Z,-0.07
2018-12-16T18:44:40.177Z,-0.14
2018-12-16T18:47:09.587Z,-0.16
2018-12-16T18:49:39.158Z,-0.14
2018-12-16T18:52:09.114Z,-0.16
2018-12-16T18:54:38.847Z,-0.18
2018-12-16T18:57:08.424Z,-0.22
2018-12-16T18:59:37.965Z,-0.22
2018-12-16T19:02:07.578Z,-0.20
2018-12-16T19:04:37.076Z,-0.30
2018-12-16T19:10:52.248Z,-0.40
2018-12-16T19:13:22.017Z,-0.39
2018-12-16T19:15:51.658Z,-0.40
2018-12-16T19:18:22.138Z,-0.44
2018-12-16T19:20:52.007Z,-0.42
2018-12-16T19:23:21.455Z,-0.51
2018-12-16T19:25:51.074Z,-0.39
2018-12-16T19:28:20.525Z,-0.37
2018-12-16T19:30:50.026Z,-0.33
2018-12-16T19:33:19.562Z,-0.34
2018-12-16T19:38:46.614Z,-0.24
2018-12-16T19:41:16.163Z,-0.31
2018-12-16T19:43:47.489Z,-0.28
2018-12-16T19:46:17.023Z,-0.36
2018-12-16T19:48:46.453Z,-0.25
2018-12-16T19:51:16.043Z,-0.27
2018-12-16T19:53:45.694Z,-0.34
2018-12-16T19:56:15.205Z,-0.35
2018-12-16T20:01:54.781Z,-0.29
2018-12-16T20:04:48.805Z,-0.28
2018-12-16T20:07:24.985Z,-0.29
2018-12-16T20:26:14.677Z,-0.21
2018-12-16T20:28:44.302Z,-0.42
2018-12-16T20:31:15.111Z,-0.24
2018-12-16T20:33:45.214Z,-0.24
2018-12-16T20:39:38.305Z,-0.29
2018-12-16T20:45:06.469Z,-0.30
2018-12-16T20:50:41.899Z,-0.45
2018-12-16T20:53:11.458Z,-0.50
2018-12-16T21:02:29.573Z,-0.36
2018-12-16T21:04:59.989Z,-0.53
2018-12-16T21:07:29.497Z,-0.45
2018-12-16T21:09:59.257Z,-0.44
2018-12-16T21:12:34.215Z,-0.42
2018-12-16T21:15:09.096Z,-0.62
2018-12-16T21:17:43.874Z,-0.38
2018-12-16T21:20:13.404Z,-0.36
2018-12-16T21:22:43.045Z,-0.35
2018-12-16T21:25:12.705Z,-0.31
2018-12-16T21:27:42.425Z,-0.27
2018-12-16T21:30:12.154Z,-0.38
2018-12-16T21:32:41.707Z,-0.34
2018-12-16T21:35:11.364Z,-0.34
2018-12-16T21:37:40.902Z,-0.38
2018-12-16T21:40:10.743Z,-0.31
2018-12-16T21:48:50.705Z,-0.15
2018-12-16T21:51:20.541Z,-0.44
2018-12-16T21:53:49.996Z,-0.19
2018-12-16T21:56:19.510Z,-0.17
2018-12-16T21:58:49.113Z,-0.14
2018-12-16T22:01:18.621Z,-0.17
2018-12-16T22:16:31.702Z,-0.13
2018-12-16T22:19:01.262Z,-0.12
2018-12-16T22:21:30.794Z,-0.05
2018-12-16T22:24:24.622Z,-0.13
2018-12-16T22:29:57.360Z,-0.03
2018-12-16T22:32:33.108Z,0.00
2018-12-16T22:35:02.619Z,-0.04
2018-12-16T22:37:32.349Z,-0.03
2018-12-16T22:40:30.485Z,-0.02
2018-12-16T22:43:00.082Z,-0.03
2018-12-16T22:45:29.517Z,0.00
2018-12-16T22:47:58.954Z,-0.08
2018-12-16T22:50:29.629Z,-0.07
2018-12-16T22:52:59.077Z,-0.01
2018-12-16T22:55:28.504Z,-0.03
2018-12-16T22:57:58.005Z,-0.06
2018-12-16T23:00:27.841Z,-0.01
2018-12-16T23:02:57.409Z,-0.01
2018-12-16T23:05:26.869Z,0.01
2018-12-16T23:07:56.557Z,-0.02
2018-12-16T23:10:26.020Z,-0.07
2018-12-16T23:12:55.504Z,-0.09
2018-12-16T23:15:24.989Z,-0.09
2018-12-16T23:17:54.651Z,-0.09
2018-12-16T23:20:28.157Z,-0.18
2018-12-16T23:22:58.156Z,-0.11
2018-12-16T23:25:27.663Z,-0.21
2018-12-16T23:27:57.118Z,-0.22
2018-12-16T23:30:26.645Z,-0.20
2018-12-16T23:32:56.072Z,-0.23
2018-12-16T23:35:25.566Z,-0.17
2018-12-16T23:37:55.184Z,-0.06
2018-12-16T23:40:24.605Z,-0.14
2018-12-16T23:42:54.011Z,-0.14
2018-12-16T23:45:23.440Z,-0.22
2018-12-16T23:47:52.940Z,-0.15
2018-12-16T23:50:22.361Z,-0.01
2018-12-16T23:52:51.901Z,-0.01
2018-12-16T23:55:21.367Z,-0.06
2018-12-16T23:57:50.817Z,-0.16
